Thursday, July 31, 2014
05:30 UTC
  |  Log In   |  Register Free
Airport Search:

Pearson Field Airport
(KVUO)

Pearson Field Airport Diagram
No Airport Diagram Available

FAA data valid effective July 24, 2014 until September 18, 2014 (unless otherwise noted).

 
 
 
 
 
 
 
 
 
 
 
 
 
 

Current Aviation Weather for Pearson Field Airport (KVUO)

The most recent METAR observation for KVUO was updated at: 1853 UTC
METAR Summary (Translated METAR)
KVUO
281853Z AUTO VRB06KT 10SM CLR 26/14 A3006 RMK AO2 SLP180 T02560144
KPDX
(3.1 nm SE from KVUO)
281853Z VRB05KT 10SM CLR 26/14 A3007 RMK AO2 SLP181 T02560144
TAF Summary (Translated TAF)
KPDX
(3.1 nm SE from KVUO)
310308Z 3103/3124 32011KT P6SM SKC FM310700 31005KT P6SM SKC FM311300 29003KT P6SM FEW008 FM311600 33007KT P6SM SKC
KTTD
(11.5 nm SE from KVUO)
301720Z 3018/3118 26004KT P6SM SKC FM311200 VRB02KT P6SM FEW008 FM311600 26003KT P6SM SKC
  Airport Weather Conditions for KVUO

 Current Weather at VUO
77° F
Fair
Northwest winds at 3.5 mph
VUO NOAA Radar

Pressure: 30.03 in
Humidity: 48%
Wind: Northwest at 3.5 MPH (3 KT)
Dew Point: 55.9°F
Visibility: 10.00 mi


Airport Weather Forecast for KVUO

Translated METAR and TAF for KVUO
Translated METAR for KVUO (0523 UTC 31 July 2014)
found at http://aviationweather.gov/adds/metars/
 
METAR text: KVUO 310453Z AUTO 31003KT 10SM CLR 25/13 A3003 RMK AO2 SLP169 T02500133
Conditions at: KVUO (VANCOUVER , WA, US) observed 0453 UTC 31 July 2014
Temperature: 25.0°C (77°F)
Dewpoint: 13.3°C (56°F) [RH = 48%]
Pressure (altimeter): 30.03 inches Hg (1017.0 mb)
[Sea-level pressure: 1016.9 mb]
Winds: from the NW (310 degrees) at 3 MPH (3 knots; 1.6 m/s)
Visibility: 10 or more miles (16+ km)
Ceiling: at least 12,000 feet AGL
Clouds: sky clear below 12,000 feet AGL
Weather: automated observation with no human augmentation;
there may or may not be significant weather present at this time
Translated TAF for KVUO

There is no translated TAF available for this airport

Find All Airport Services Find A Hotel Find A Rental Car Find A Golf Course Find A Restaurant $100 Hamburger



FBO's on the Field
FBO Company Facility Photos Services Transportation Aviation Fuel Prices: Prices include tax
Catering Weather Repair Courtesy Rental Type 100LL JetA JetA+ MOGAS 8087
 
Aero Maintenance Inc

This FBO has not yet been rated
FS:AirBP
Last Updated: Jul-09
Login to update fuel prices
SS:
Contact Aero Maintenance IncMore FBO Information
 
Add another FBO Facility Photos Catering Weather Repair Courtesy Rental Type 100LL JetA JetA+ MOGAS 8087
Services Transportation Aviation Fuel Prices: Prices include tax


GlobalAir.com Airport Resource Center model-print
model-print
model-print
model-print